Time;durP1;ratioP1;P1;durP2;ratioP2;P2;SDS_P1;SDS_P2;PMS_P1;PMS_P2;Temp;Humidity;BMP_temperature;BMP_pressure;BME280_temperature;BME280_humidity;BME280_pressure;Samples;Min_cycle;Max_cycle;Signal;HPM_P1;HPM_P2
2022/10/13 00:03:03;;;;;;;19.15;12.90;;;9.30;99.90;;;;;;7349324;32;20593;-60
2022/10/13 00:07:04;;;;;;;21.60;13.40;;;9.20;99.90;;;;;;7344571;32;20220;-60
2022/10/13 00:11:28;;;;;;;20.30;12.95;;;9.20;99.90;;;;;;7345175;32;20104;-59
2022/10/13 00:15:30;;;;;;;22.73;13.27;;;9.20;99.90;;;;;;7342985;32;20127;-59
2022/10/13 00:19:32;;;;;;;18.10;12.10;;;9.20;99.90;;;;;;7345801;32;20119;-60
2022/10/13 00:23:34;;;;;;;20.12;13.50;;;9.20;99.90;;;;;;7344451;32;21069;-59
2022/10/13 00:27:36;;;;;;;22.55;12.93;;;9.20;99.90;;;;;;7345941;32;20100;-59
2022/10/13 00:31:38;;;;;;;20.65;13.62;;;9.20;99.90;;;;;;7347354;32;20096;-60
2022/10/13 00:35:45;;;;;;;23.02;13.65;;;9.30;99.90;;;;;;7346434;32;20104;-59
2022/10/13 00:39:47;;;;;;;21.17;13.73;;;9.30;99.90;;;;;;7343136;32;20148;-60
2022/10/13 00:44:30;;;;;;;25.33;13.52;;;9.30;99.90;;;;;;7345566;32;20103;-59
2022/10/13 00:48:32;;;;;;;21.08;13.45;;;9.30;99.90;;;;;;7327775;32;20130;-60
2022/10/13 00:52:35;;;;;;;19.55;12.85;;;9.40;99.90;;;;;;7342299;32;20225;-60
2022/10/13 00:56:38;;;;;;;20.58;13.15;;;9.30;99.90;;;;;;7341293;32;20108;-60
2022/10/13 01:00:41;;;;;;;24.60;13.23;;;9.40;99.90;;;;;;7340754;32;20137;-60
2022/10/13 01:04:46;;;;;;;19.23;13.23;;;9.40;99.90;;;;;;7342563;32;20119;-60
2022/10/13 01:08:48;;;;;;;21.95;13.48;;;9.50;99.90;;;;;;7337515;32;20130;-60
2022/10/13 01:12:52;;;;;;;21.27;13.60;;;9.50;99.90;;;;;;7346832;32;20103;-59
2022/10/13 01:17:14;;;;;;;20.10;13.05;;;9.50;99.90;;;;;;7346811;32;20099;-59
2022/10/13 01:21:24;;;;;;;21.20;13.82;;;9.60;99.90;;;;;;7346965;32;20585;-60
2022/10/13 01:25:33;;;;;;;19.35;12.90;;;9.50;99.90;;;;;;7344835;32;20797;-60
2022/10/13 01:30:03;;;;;;;20.30;13.00;;;9.60;99.90;;;;;;7342832;32;20190;-60
2022/10/13 01:34:22;;;;;;;23.98;14.05;;;9.60;99.90;;;;;;7343034;32;20195;-59
2022/10/13 01:38:48;;;;;;;25.02;14.23;;;9.60;99.90;;;;;;7340429;32;20104;-59
2022/10/13 01:43:00;;;;;;;26.10;13.80;;;9.70;99.90;;;;;;7344553;32;20111;-60
2022/10/13 01:47:02;;;;;;;20.73;13.73;;;9.70;99.90;;;;;;7344853;32;20103;-59
2022/10/13 01:51:08;;;;;;;21.17;13.13;;;9.70;99.90;;;;;;7349939;32;20098;-60
2022/10/13 01:55:12;;;;;;;23.90;13.73;;;9.70;99.90;;;;;;7348509;32;20206;-60
2022/10/13 01:59:14;;;;;;;17.48;12.27;;;9.80;99.90;;;;;;7342052;32;20095;-60
2022/10/13 02:03:40;;;;;;;19.83;13.25;;;9.80;99.90;;;;;;7344960;32;20554;-60
2022/10/13 02:07:49;;;;;;;22.67;13.10;;;9.80;99.90;;;;;;7339502;32;20103;-59
2022/10/13 02:11:58;;;;;;;24.65;13.30;;;9.80;99.90;;;;;;7349959;32;20130;-60
2022/10/13 02:16:00;;;;;;;22.67;14.48;;;9.90;99.90;;;;;;7336209;32;20116;-60
2022/10/13 02:20:05;;;;;;;22.20;13.38;;;10.00;99.90;;;;;;7338778;32;20198;-60
2022/10/13 02:24:07;;;;;;;18.92;13.77;;;9.90;99.90;;;;;;7341519;32;20153;-59
2022/10/13 02:28:11;;;;;;;15.60;12.18;;;10.00;99.90;;;;;;7338181;32;20100;-59
2022/10/13 02:32:13;;;;;;;24.02;13.43;;;10.00;99.90;;;;;;7340844;32;20172;-60
2022/10/13 02:36:15;;;;;;;20.73;12.73;;;10.00;99.90;;;;;;7352623;32;20110;-59
2022/10/13 02:40:17;;;;;;;24.02;13.38;;;10.00;99.90;;;;;;7336862;32;20132;-60
2022/10/13 02:44:19;;;;;;;22.67;14.60;;;9.90;99.90;;;;;;7341433;32;20111;-60
2022/10/13 02:48:21;;;;;;;23.55;13.57;;;10.00;99.90;;;;;;7339892;32;20130;-60
2022/10/13 02:52:23;;;;;;;19.95;14.02;;;10.00;99.90;;;;;;7345994;32;20108;-59
2022/10/13 02:56:24;;;;;;;22.42;14.25;;;10.00;99.90;;;;;;7346821;32;20604;-59
2022/10/13 03:00:26;;;;;;;23.12;13.52;;;10.10;99.90;;;;;;7350242;32;20116;-59
2022/10/13 03:04:28;;;;;;;21.87;13.57;;;10.10;99.90;;;;;;7356494;32;20123;-59
2022/10/13 03:08:34;;;;;;;21.05;13.43;;;10.10;99.90;;;;;;7347554;32;20234;-59
2022/10/13 03:12:36;;;;;;;19.17;12.77;;;10.10;99.90;;;;;;7344607;32;20265;-59
2022/10/13 03:16:37;;;;;;;19.90;12.85;;;10.20;99.90;;;;;;7346289;32;20257;-59
2022/10/13 03:20:39;;;;;;;24.85;12.68;;;10.20;99.90;;;;;;7347676;32;20103;-59
2022/10/13 03:24:41;;;;;;;21.95;13.25;;;10.20;99.90;;;;;;7347116;32;20103;-59
2022/10/13 03:28:48;;;;;;;21.85;13.48;;;10.30;99.90;;;;;;7347746;32;20239;-60
2022/10/13 03:32:50;;;;;;;22.97;13.17;;;10.20;99.90;;;;;;7343534;32;20215;-59
2022/10/13 03:36:51;;;;;;;23.23;12.88;;;10.20;99.90;;;;;;7342799;32;20333;-59
2022/10/13 03:40:53;;;;;;;24.55;13.75;;;10.20;99.90;;;;;;7342255;32;20719;-59
2022/10/13 03:44:55;;;;;;;17.83;12.60;;;10.20;99.90;;;;;;7344015;32;20119;-59
2022/10/13 03:48:57;;;;;;;17.92;12.50;;;10.20;99.90;;;;;;7340868;32;20111;-59
2022/10/13 03:52:59;;;;;;;21.35;14.18;;;10.20;99.90;;;;;;7344589;32;20107;-59
2022/10/13 03:57:00;;;;;;;19.83;12.45;;;10.20;99.90;;;;;;7345647;32;20799;-59
2022/10/13 04:01:05;;;;;;;23.05;11.70;;;10.30;99.90;;;;;;7340610;32;20130;-59
2022/10/13 04:05:07;;;;;;;23.33;13.05;;;10.20;99.90;;;;;;7348871;32;20502;-59
2022/10/13 04:09:09;;;;;;;20.65;12.82;;;10.30;99.90;;;;;;7346020;32;20108;-59
2022/10/13 04:13:11;;;;;;;26.42;12.75;;;10.30;99.90;;;;;;7338117;32;20125;-59
2022/10/13 04:17:13;;;;;;;18.58;12.45;;;10.30;99.90;;;;;;7346609;32;20107;-59
2022/10/13 04:21:15;;;;;;;19.73;11.98;;;10.40;99.90;;;;;;7347705;32;20114;-59
2022/10/13 04:25:17;;;;;;;20.88;11.90;;;10.40;99.90;;;;;;7346525;32;20111;-59
2022/10/13 04:29:18;;;;;;;25.33;12.43;;;10.50;99.90;;;;;;7346963;32;20119;-59
2022/10/13 04:33:20;;;;;;;18.23;11.57;;;10.40;99.90;;;;;;7338791;32;20196;-59
2022/10/13 04:37:22;;;;;;;20.42;11.65;;;10.50;99.90;;;;;;7351315;32;20206;-59
2022/10/13 04:41:24;;;;;;;19.85;11.52;;;10.50;99.90;;;;;;7344187;32;20194;-60
2022/10/13 04:45:26;;;;;;;19.95;12.40;;;10.60;99.90;;;;;;7345434;32;20249;-60
2022/10/13 04:49:28;;;;;;;22.15;12.45;;;10.60;99.90;;;;;;7344749;32;20126;-60
2022/10/13 04:53:30;;;;;;;20.23;11.65;;;10.60;99.90;;;;;;7339419;32;20190;-60
2022/10/13 04:57:32;;;;;;;19.85;11.73;;;10.50;99.90;;;;;;7342753;32;20146;-60
2022/10/13 05:01:34;;;;;;;19.27;11.35;;;10.50;99.90;;;;;;7344246;32;20272;-60
2022/10/13 05:05:36;;;;;;;23.58;11.63;;;10.50;99.90;;;;;;7346914;32;20376;-60
2022/10/13 05:09:38;;;;;;;19.25;11.90;;;10.50;99.90;;;;;;7343501;32;20156;-60
2022/10/13 05:13:39;;;;;;;19.77;11.60;;;10.60;99.90;;;;;;7348126;32;20111;-60
2022/10/13 05:17:41;;;;;;;18.62;11.43;;;10.50;99.90;;;;;;7346041;32;20138;-60
2022/10/13 05:21:43;;;;;;;19.17;11.90;;;10.50;99.90;;;;;;7339987;32;20114;-60
2022/10/13 05:25:45;;;;;;;18.25;11.32;;;10.50;99.90;;;;;;7331726;32;20138;-61
2022/10/13 05:29:46;;;;;;;18.62;11.43;;;10.60;99.90;;;;;;7341117;32;20194;-60
2022/10/13 05:33:49;;;;;;;20.20;11.70;;;10.50;99.90;;;;;;7339502;32;20120;-60
2022/10/13 05:37:51;;;;;;;19.45;11.57;;;10.70;99.90;;;;;;7348939;32;20268;-61
2022/10/13 05:41:52;;;;;;;20.05;12.25;;;10.70;99.90;;;;;;7345581;32;20126;-60
2022/10/13 05:45:54;;;;;;;16.08;11.73;;;10.60;99.90;;;;;;7347776;32;20149;-60
2022/10/13 05:49:56;;;;;;;20.45;11.02;;;10.60;99.90;;;;;;7340464;32;20614;-60
2022/10/13 05:54:08;;;;;;;18.33;11.43;;;10.60;99.90;;;;;;7344807;32;20657;-60
2022/10/13 05:58:10;;;;;;;18.87;11.30;;;10.70;99.90;;;;;;7347493;32;20130;-63
2022/10/13 06:02:14;;;;;;;14.70;10.93;;;10.60;99.90;;;;;;7341267;32;20112;-65
2022/10/13 06:06:16;;;;;;;17.12;11.23;;;10.60;99.90;;;;;;7338437;32;20229;-66
2022/10/13 06:10:35;;;;;;;18.37;10.57;;;10.50;99.90;;;;;;7335802;32;20197;-64
2022/10/13 06:14:37;;;;;;;17.65;10.68;;;10.60;99.90;;;;;;7347786;32;20110;-64
2022/10/13 06:18:39;;;;;;;16.85;11.32;;;10.60;99.90;;;;;;7339536;32;20567;-63
2022/10/13 06:22:40;;;;;;;17.37;11.50;;;10.50;99.90;;;;;;7354261;32;20183;-64
2022/10/13 06:26:42;;;;;;;14.20;10.27;;;10.50;99.90;;;;;;7345978;32;20103;-65
2022/10/13 06:30:52;;;;;;;19.52;11.57;;;10.60;99.90;;;;;;7342734;32;20107;-64
2022/10/13 06:34:54;;;;;;;21.08;11.48;;;10.50;99.90;;;;;;7346809;32;20711;-65
2022/10/13 06:38:55;;;;;;;20.70;10.95;;;10.50;99.90;;;;;;7344038;32;20214;-66
2022/10/13 06:42:57;;;;;;;14.63;10.55;;;10.80;99.90;;;;;;7353258;32;20108;-65
2022/10/13 06:46:59;;;;;;;24.55;11.45;;;10.70;99.90;;;;;;7351013;32;20188;-65
2022/10/13 06:51:06;;;;;;;19.83;11.25;;;10.70;99.90;;;;;;7340223;32;20161;-66
2022/10/13 06:55:08;;;;;;;20.83;10.77;;;10.70;99.90;;;;;;7336169;32;20617;-63
2022/10/13 06:59:10;;;;;;;19.80;11.50;;;10.80;99.90;;;;;;7335699;32;20100;-63
2022/10/13 07:03:12;;;;;;;20.35;10.40;;;10.70;99.90;;;;;;7352524;32;24795;-63
2022/10/13 07:07:15;;;;;;;16.70;11.10;;;11.00;99.90;;;;;;7340602;32;20123;-62
2022/10/13 07:11:17;;;;;;;17.70;11.05;;;11.30;99.90;;;;;;7345219;32;20637;-65
2022/10/13 07:15:19;;;;;;;19.75;9.70;;;11.20;99.90;;;;;;7344367;32;20202;-64
2022/10/13 07:19:20;;;;;;;23.15;11.65;;;11.20;99.90;;;;;;7343274;32;20111;-64
2022/10/13 07:23:22;;;;;;;16.27;9.73;;;11.40;99.90;;;;;;7344764;32;20753;-64
2022/10/13 07:27:24;;;;;;;19.12;10.32;;;11.60;99.90;;;;;;7347489;32;20114;-63
2022/10/13 07:31:26;;;;;;;16.48;10.05;;;11.60;99.90;;;;;;7348013;32;20929;-64
2022/10/13 07:35:28;;;;;;;16.25;9.30;;;11.60;99.90;;;;;;7349362;32;20202;-63
2022/10/13 07:39:31;;;;;;;19.05;9.63;;;11.60;99.90;;;;;;7342825;32;20103;-63
2022/10/13 07:43:33;;;;;;;17.08;10.20;;;11.70;99.90;;;;;;7346093;32;20455;-63
2022/10/13 07:47:35;;;;;;;18.62;9.55;;;11.70;99.90;;;;;;7342165;32;20475;-63
2022/10/13 07:51:36;;;;;;;16.70;9.38;;;11.70;99.90;;;;;;7344326;32;20197;-63
2022/10/13 07:55:38;;;;;;;16.80;9.70;;;11.90;99.90;;;;;;7341746;32;20202;-63
2022/10/13 07:59:40;;;;;;;20.60;8.63;;;12.00;99.90;;;;;;7347093;32;20134;-63
2022/10/13 08:03:43;;;;;;;16.73;9.20;;;12.20;99.90;;;;;;7345326;32;20111;-65
2022/10/13 08:07:50;;;;;;;17.45;9.45;;;12.40;99.90;;;;;;7343660;32;20238;-66
2022/10/13 08:11:58;;;;;;;;;;;12.50;99.90;;;;;;7343871;32;20228;-63
2022/10/13 08:16:02;;;;;;;17.33;9.88;;;12.70;99.90;;;;;;7339795;32;20027;-64
2022/10/13 08:20:05;;;;;;;17.05;8.70;;;12.90;99.90;;;;;;7343877;32;20123;-63
2022/10/13 08:24:12;;;;;;;14.98;8.13;;;13.00;99.90;;;;;;7342047;32;20892;-63
2022/10/13 08:28:16;;;;;;;15.25;9.07;;;13.10;99.90;;;;;;7343655;32;20134;-63
2022/10/13 08:32:19;;;;;;;15.02;8.00;;;13.20;99.90;;;;;;7345024;32;20130;-64
2022/10/13 08:36:22;;;;;;;12.45;8.32;;;13.20;99.90;;;;;;7348413;32;20130;-66
2022/10/13 08:40:24;;;;;;;18.17;9.82;;;13.10;99.90;;;;;;7349617;32;20146;-63
2022/10/13 08:44:35;;;;;;;16.75;9.18;;;13.20;99.90;;;;;;7339352;32;20138;-63
2022/10/13 08:48:59;;;;;;;15.27;9.00;;;13.20;99.90;;;;;;7345636;32;20130;-64
2022/10/13 08:53:12;;;;;;;17.60;8.95;;;13.20;99.90;;;;;;7346048;32;20127;-65
2022/10/13 08:57:14;;;;;;;19.60;9.43;;;13.20;99.90;;;;;;7339273;32;20614;-64
2022/10/13 09:01:22;;;;;;;14.10;8.75;;;13.30;99.90;;;;;;7341773;32;20162;-63
2022/10/13 09:05:36;;;;;;;14.87;8.50;;;13.40;99.90;;;;;;7342825;32;20510;-63
2022/10/13 09:09:38;;;;;;;14.38;8.20;;;13.60;99.90;;;;;;7336899;32;20135;-63
2022/10/13 09:13:40;;;;;;;14.00;8.27;;;13.90;99.90;;;;;;7344417;32;20142;-63
2022/10/13 09:17:41;;;;;;;12.43;7.20;;;14.10;99.90;;;;;;7341579;32;20102;-64
2022/10/13 09:21:43;;;;;;;12.25;7.53;;;14.10;99.90;;;;;;7344748;32;20111;-63
2022/10/13 09:25:50;;;;;;;16.08;8.57;;;14.30;99.90;;;;;;7340391;32;20121;-64
2022/10/13 09:29:52;;;;;;;15.82;8.75;;;14.40;99.90;;;;;;7342954;32;20622;-63
2022/10/13 09:34:17;;;;;;;18.80;8.43;;;14.60;99.90;;;;;;7341549;32;20261;-64
2022/10/13 09:38:23;;;;;;;13.65;8.48;;;15.10;99.90;;;;;;7340068;32;20123;-64
2022/10/13 09:42:27;;;;;;;13.50;8.10;;;15.70;99.90;;;;;;7340994;32;20138;-64
2022/10/13 09:46:37;;;;;;;14.77;7.70;;;16.00;99.90;;;;;;7344757;32;20223;-65
2022/10/13 09:50:48;;;;;;;13.88;7.80;;;16.70;99.90;;;;;;7341219;32;20182;-65
2022/10/13 09:54:52;;;;;;;15.00;7.25;;;17.00;99.90;;;;;;7338736;32;20091;-65
2022/10/13 09:59:26;;;;;;;10.80;7.18;;;17.70;99.90;;;;;;7342103;32;20223;-64
2022/10/13 10:03:34;;;;;;;14.32;7.22;;;17.70;99.90;;;;;;7338737;32;20538;-64
2022/10/13 10:07:36;;;;;;;10.88;7.32;;;17.20;99.90;;;;;;7339507;32;20175;-65
2022/10/13 10:11:42;;;;;;;16.33;7.65;;;17.00;99.90;;;;;;7339828;32;20194;-64
2022/10/13 10:15:54;;;;;;;12.88;6.95;;;16.60;99.90;;;;;;7339393;32;20111;-64
2022/10/13 10:20:38;;;;;;;12.43;7.47;;;16.40;99.90;;;;;;7340119;32;20106;-64
2022/10/13 10:24:54;;;;;;;13.43;8.00;;;16.40;99.90;;;;;;7327347;32;20123;-66
2022/10/13 10:29:18;;;;;;;15.77;7.50;;;16.20;99.90;;;;;;7339785;32;20133;-64
2022/10/13 10:33:28;;;;;;;13.77;6.87;;;16.10;99.90;;;;;;7341361;32;20099;-65
2022/10/13 10:37:37;;;;;;;12.75;7.35;;;16.00;99.90;;;;;;7342999;32;20134;-64
2022/10/13 10:42:02;;;;;;;17.00;7.45;;;16.00;99.90;;;;;;7341556;32;20104;-64
2022/10/13 10:46:11;;;;;;;16.58;8.38;;;16.00;99.90;;;;;;7335257;32;20111;-64
2022/10/13 10:50:15;;;;;;;14.87;7.78;;;16.00;99.90;;;;;;7339264;32;20130;-63
2022/10/13 10:54:38;;;;;;;13.70;7.75;;;16.00;99.90;;;;;;7338808;32;20226;-63
2022/10/13 10:59:06;;;;;;;16.48;8.30;;;16.10;99.90;;;;;;7338984;32;20563;-63
2022/10/13 11:03:33;;;;;;;16.12;8.07;;;16.10;99.90;;;;;;7344428;32;20198;-63
2022/10/13 11:07:38;;;;;;;14.67;7.60;;;16.20;99.90;;;;;;7341666;32;20111;-63
2022/10/13 11:11:41;;;;;;;14.23;7.72;;;16.20;99.90;;;;;;7341044;32;20092;-63
2022/10/13 11:15:44;;;;;;;13.60;7.78;;;16.20;99.90;;;;;;7342634;32;20121;-65
2022/10/13 11:19:47;;;;;;;14.38;7.35;;;16.20;99.90;;;;;;7342636;32;20133;-63
2022/10/13 11:23:49;;;;;;;12.25;7.05;;;16.30;99.90;;;;;;7347569;32;20198;-64
2022/10/13 11:27:51;;;;;;;13.60;7.82;;;16.30;99.90;;;;;;7346073;32;20182;-63
2022/10/13 11:31:53;;;;;;;18.08;7.90;;;16.30;99.90;;;;;;7343662;32;20095;-65
2022/10/13 11:35:55;;;;;;;19.23;8.25;;;16.30;99.90;;;;;;7343381;32;20121;-64
2022/10/13 11:40:02;;;;;;;14.23;7.50;;;16.10;99.90;;;;;;7344768;32;20138;-65
2022/10/13 11:44:18;;;;;;;;;;;16.10;99.90;;;;;;7344467;32;20099;-65
2022/10/13 11:48:47;;;;;;;15.38;7.32;;;16.10;99.90;;;;;;7342697;32;20063;-65
2022/10/13 11:53:19;;;;;;;13.43;7.75;;;16.10;99.90;;;;;;7338407;32;20111;-64
2022/10/13 11:57:25;;;;;;;14.93;8.43;;;16.00;99.90;;;;;;7340575;32;20179;-63
2022/10/13 12:01:27;;;;;;;12.75;8.52;;;15.90;99.90;;;;;;7342257;32;20638;-64
2022/10/13 12:05:30;;;;;;;18.62;8.80;;;16.00;99.90;;;;;;7340648;32;20220;-65
2022/10/13 12:09:33;;;;;;;16.20;9.23;;;15.80;99.90;;;;;;7340600;32;20769;-65
2022/10/13 12:13:35;;;;;;;13.75;7.90;;;15.70;99.90;;;;;;7338188;32;20467;-64
2022/10/13 12:17:37;;;;;;;12.85;5.75;;;15.50;99.90;;;;;;7344429;32;20222;-65
2022/10/13 12:21:50;;;;;;;10.65;5.10;;;15.40;99.90;;;;;;7342808;32;20546;-63
2022/10/13 12:25:57;;;;;;;10.18;4.55;;;15.40;99.90;;;;;;7346383;32;20107;-64
2022/10/13 12:30:00;;;;;;;11.53;4.80;;;15.30;99.90;;;;;;7342721;32;20726;-63
2022/10/13 12:34:02;;;;;;;9.00;4.20;;;15.30;99.90;;;;;;7339864;32;20121;-65
2022/10/13 12:38:14;;;;;;;8.93;3.87;;;15.10;99.90;;;;;;7342518;32;20111;-66
2022/10/13 12:42:17;;;;;;;8.48;4.25;;;15.10;99.90;;;;;;7351657;32;20205;-64
2022/10/13 12:46:46;;;;;;;6.93;3.97;;;15.10;99.90;;;;;;7339771;32;20229;-64
2022/10/13 12:50:47;;;;;;;5.70;3.83;;;15.00;99.90;;;;;;7334735;32;20239;-64
2022/10/13 12:54:54;;;;;;;8.77;4.05;;;15.10;99.90;;;;;;7341520;32;20095;-63
2022/10/13 12:58:56;;;;;;;6.87;3.78;;;15.20;99.90;;;;;;7339037;32;20099;-64
2022/10/13 13:02:59;;;;;;;6.37;4.45;;;15.30;99.90;;;;;;7337071;32;20575;-63
2022/10/13 13:07:03;;;;;;;8.43;3.80;;;15.50;99.90;;;;;;7344574;32;20448;-65
2022/10/13 13:11:18;;;;;;;5.30;3.33;;;15.70;99.90;;;;;;7345032;32;20110;-63
2022/10/13 13:15:36;;;;;;;7.62;3.58;;;15.70;99.90;;;;;;7343438;32;20863;-64
2022/10/13 13:19:42;;;;;;;7.62;4.10;;;15.60;99.90;;;;;;7341993;32;20119;-64
2022/10/13 13:23:47;;;;;;;9.18;4.10;;;15.50;99.90;;;;;;7341842;32;20426;-64
2022/10/13 13:27:54;;;;;;;10.38;4.40;;;15.50;99.90;;;;;;7350796;32;20114;-63
2022/10/13 13:31:56;;;;;;;8.23;4.53;;;15.50;99.90;;;;;;7340526;32;20194;-64
2022/10/13 13:35:58;;;;;;;10.77;4.40;;;15.30;99.90;;;;;;7339837;32;20096;-63
2022/10/13 13:40:00;;;;;;;11.60;4.87;;;15.40;99.90;;;;;;7337254;32;20107;-64
2022/10/13 13:44:02;;;;;;;7.93;4.20;;;15.50;99.90;;;;;;7339559;32;20091;-64
2022/10/13 13:48:03;;;;;;;8.95;4.30;;;15.50;99.90;;;;;;7340135;32;20119;-63
2022/10/13 13:52:05;;;;;;;10.65;4.78;;;15.50;99.90;;;;;;7338099;32;20127;-64
2022/10/13 13:56:18;;;;;;;9.43;5.37;;;15.70;99.90;;;;;;7340760;32;20116;-64
2022/10/13 14:00:20;;;;;;;11.12;4.28;;;15.60;99.90;;;;;;7346215;32;20122;-65
2022/10/13 14:04:22;;;;;;;9.57;4.47;;;15.60;99.90;;;;;;7339197;32;20120;-64
2022/10/13 14:08:23;;;;;;;9.32;4.43;;;15.50;99.90;;;;;;7340941;32;20733;-66
2022/10/13 14:12:25;;;;;;;10.75;4.90;;;15.50;99.90;;;;;;7337674;32;20115;-64
2022/10/13 14:16:27;;;;;;;9.48;5.22;;;15.30;99.90;;;;;;7338298;32;20104;-63
2022/10/13 14:20:29;;;;;;;9.10;4.90;;;15.20;99.90;;;;;;7340867;32;20804;-63
2022/10/13 14:24:31;;;;;;;11.48;5.30;;;15.00;99.90;;;;;;7346558;32;20115;-65
2022/10/13 14:28:32;;;;;;;12.45;5.65;;;14.80;99.90;;;;;;7346063;32;20484;-63
2022/10/13 14:32:37;;;;;;;12.43;6.10;;;14.60;99.90;;;;;;7348466;32;20505;-64
2022/10/13 14:36:39;;;;;;;11.82;6.55;;;14.60;99.90;;;;;;7344495;32;20880;-63
2022/10/13 14:40:41;;;;;;;9.52;6.12;;;14.50;99.90;;;;;;7345882;32;20237;-65
2022/10/13 14:44:43;;;;;;;18.02;8.63;;;14.40;99.90;;;;;;7337662;32;20181;-63
2022/10/13 14:48:44;;;;;;;12.18;7.85;;;14.50;99.90;;;;;;7343496;32;20125;-65
2022/10/13 14:52:46;;;;;;;15.15;8.68;;;14.50;99.90;;;;;;7350738;32;20121;-64
2022/10/13 14:56:48;;;;;;;18.45;9.85;;;14.60;99.90;;;;;;7340966;32;20186;-63
2022/10/13 15:00:50;;;;;;;15.35;10.07;;;14.60;99.90;;;;;;7342620;32;20207;-64
2022/10/13 15:04:52;;;;;;;19.10;9.43;;;14.60;99.90;;;;;;7344612;32;20226;-64
2022/10/13 15:08:54;;;;;;;17.02;9.35;;;14.60;99.90;;;;;;7347043;32;20113;-64
2022/10/13 15:12:56;;;;;;;13.95;10.07;;;14.60;99.90;;;;;;7343098;32;20104;-65
2022/10/13 15:16:57;;;;;;;15.63;10.02;;;14.50;99.90;;;;;;7349979;32;20099;-65
2022/10/13 15:20:59;;;;;;;15.13;9.75;;;14.50;99.90;;;;;;7341650;32;20277;-65
2022/10/13 15:25:03;;;;;;;26.12;10.52;;;14.50;99.90;;;;;;7340247;32;20252;-65
2022/10/13 15:29:05;;;;;;;15.55;10.38;;;14.50;99.90;;;;;;7345324;32;20100;-64
2022/10/13 15:33:06;;;;;;;16.08;11.00;;;14.40;99.90;;;;;;7339395;32;20130;-63
2022/10/13 15:37:08;;;;;;;16.15;10.60;;;14.30;99.90;;;;;;7342592;32;20125;-63
2022/10/13 15:41:10;;;;;;;20.27;12.15;;;14.20;99.90;;;;;;7340581;32;20224;-63
2022/10/13 15:45:13;;;;;;;17.65;12.30;;;14.20;99.90;;;;;;7342773;32;20117;-64
2022/10/13 15:49:14;;;;;;;20.42;13.50;;;14.10;99.90;;;;;;7345770;32;20179;-63
2022/10/13 15:53:16;;;;;;;17.12;12.68;;;14.00;99.90;;;;;;7339554;32;20097;-63
2022/10/13 15:57:18;;;;;;;20.73;12.37;;;14.00;99.90;;;;;;7347015;32;20175;-63
2022/10/13 16:01:20;;;;;;;20.62;12.73;;;14.00;99.90;;;;;;7345953;32;20908;-63
2022/10/13 16:05:22;;;;;;;21.87;13.00;;;13.90;99.90;;;;;;7344437;32;20515;-63
2022/10/13 16:09:23;;;;;;;21.17;13.25;;;13.90;99.90;;;;;;7340896;32;20111;-62
2022/10/13 16:13:25;;;;;;;27.08;14.27;;;13.80;99.90;;;;;;7339926;32;20526;-62
2022/10/13 16:17:27;;;;;;;22.65;13.30;;;13.80;99.90;;;;;;7344852;32;20167;-62
2022/10/13 16:21:28;;;;;;;21.40;13.13;;;13.70;99.90;;;;;;7343353;32;20116;-65
2022/10/13 16:25:30;;;;;;;20.83;13.10;;;13.70;99.90;;;;;;7344498;32;20194;-62
2022/10/13 16:29:32;;;;;;;23.67;13.15;;;13.70;99.90;;;;;;7317908;32;20112;-63
2022/10/13 16:33:35;;;;;;;19.42;12.60;;;13.80;99.90;;;;;;7316638;32;20191;-63
2022/10/13 16:37:36;;;;;;;20.55;14.30;;;13.70;99.90;;;;;;7317121;32;20134;-63
2022/10/13 16:41:39;;;;;;;25.00;15.45;;;13.70;99.90;;;;;;7315042;32;20122;-62
2022/10/13 16:45:40;;;;;;;22.55;14.73;;;13.70;99.90;;;;;;7312602;32;20191;-61
2022/10/13 16:50:00;;;;;;;23.95;14.80;;;13.80;99.90;;;;;;7318733;32;20333;-62
2022/10/13 16:54:02;;;;;;;20.35;13.50;;;13.70;99.90;;;;;;7316727;32;20117;-63
2022/10/13 16:58:05;;;;;;;23.83;14.02;;;13.70;99.90;;;;;;7312025;32;20219;-59
2022/10/13 17:02:14;;;;;;;23.77;15.38;;;13.60;99.90;;;;;;7312580;32;20108;-62
2022/10/13 17:06:18;;;;;;;22.00;14.38;;;13.60;99.90;;;;;;7314757;32;20107;-62
2022/10/13 17:10:20;;;;;;;27.77;18.12;;;13.40;99.90;;;;;;7320442;32;20100;-59
2022/10/13 17:14:22;;;;;;;21.17;14.80;;;13.40;99.90;;;;;;7324450;32;20111;-60
2022/10/13 17:18:25;;;;;;;21.52;15.23;;;13.30;99.90;;;;;;7321179;32;20149;-59
2022/10/13 17:22:27;;;;;;;20.08;15.07;;;13.30;99.90;;;;;;7315111;32;20103;-59
2022/10/13 17:26:29;;;;;;;22.83;15.15;;;13.20;99.90;;;;;;7314531;32;20671;-63
2022/10/13 17:30:30;;;;;;;22.02;16.25;;;13.30;99.90;;;;;;7315731;32;20215;-61
2022/10/13 17:34:34;;;;;;;24.20;17.95;;;13.30;99.90;;;;;;7321328;32;20191;-61
2022/10/13 17:38:36;;;;;;;26.40;18.75;;;13.30;99.90;;;;;;7317949;32;20187;-63
2022/10/13 17:42:37;;;;;;;28.20;21.98;;;13.20;99.90;;;;;;7314118;32;20655;-63
2022/10/13 17:46:39;;;;;;;30.42;23.05;;;13.30;99.90;;;;;;7317277;32;20095;-61
2022/10/13 17:50:41;;;;;;;30.88;20.08;;;13.20;99.90;;;;;;7314848;32;20194;-63
2022/10/13 17:54:42;;;;;;;28.10;19.12;;;13.20;99.90;;;;;;7309036;32;20096;-59
2022/10/13 17:58:45;;;;;;;26.70;17.33;;;13.20;99.90;;;;;;7313489;32;20129;-59
2022/10/13 18:02:47;;;;;;;20.77;15.52;;;13.20;99.90;;;;;;7319053;32;20103;-59
2022/10/13 18:06:49;;;;;;;22.40;14.98;;;13.20;99.90;;;;;;7315892;32;20103;-60
2022/10/13 18:10:51;;;;;;;22.62;14.45;;;13.20;99.90;;;;;;7318759;32;20216;-59
2022/10/13 18:15:09;;;;;;;19.00;13.68;;;13.10;99.90;;;;;;7319148;32;20138;-62
2022/10/13 18:19:11;;;;;;;37.05;24.98;;;13.10;99.90;;;;;;7318622;32;20664;-59
2022/10/13 18:23:13;;;;;;;19.98;14.57;;;13.10;99.90;;;;;;7321964;32;20711;-59
2022/10/13 18:27:15;;;;;;;22.25;14.05;;;13.20;99.90;;;;;;7324289;32;20143;-63
2022/10/13 18:31:20;;;;;;;22.13;13.40;;;13.10;99.90;;;;;;7316101;32;20108;-62
2022/10/13 18:35:21;;;;;;;19.27;13.15;;;13.00;99.90;;;;;;7320296;32;20127;-62
2022/10/13 18:39:25;;;;;;;20.02;13.20;;;13.00;99.90;;;;;;7316866;32;20103;-63
2022/10/13 18:43:29;;;;;;;20.02;14.85;;;13.00;99.90;;;;;;7318340;32;20099;-64
2022/10/13 18:47:30;;;;;;;19.02;14.05;;;12.90;99.90;;;;;;7316033;32;20195;-62
2022/10/13 18:51:33;;;;;;;22.37;14.05;;;13.00;99.90;;;;;;7322724;32;20232;-62
2022/10/13 18:55:41;;;;;;;21.55;13.85;;;13.00;99.90;;;;;;7323227;32;20099;-62
2022/10/13 18:59:43;;;;;;;24.48;14.18;;;13.00;99.90;;;;;;7315431;32;20104;-63
2022/10/13 19:03:45;;;;;;;23.02;15.02;;;12.90;99.90;;;;;;7318387;32;20517;-62
2022/10/13 19:07:47;;;;;;;21.35;14.68;;;12.90;99.90;;;;;;7320277;32;20104;-63
2022/10/13 19:11:49;;;;;;;22.02;15.63;;;12.80;99.90;;;;;;7318843;32;20605;-62
2022/10/13 19:15:58;;;;;;;23.90;16.40;;;13.00;99.90;;;;;;7308738;32;20204;-63
2022/10/13 19:20:00;;;;;;;20.83;15.38;;;13.00;99.90;;;;;;7313465;32;20179;-62
2022/10/13 19:24:02;;;;;;;24.00;15.73;;;13.00;99.90;;;;;;7324962;32;20195;-62
2022/10/13 19:28:04;;;;;;;23.27;15.10;;;13.00;99.90;;;;;;7322089;32;20115;-62
2022/10/13 19:32:06;;;;;;;23.10;15.75;;;13.00;99.90;;;;;;7318241;32;20104;-62
2022/10/13 19:36:09;;;;;;;18.37;13.02;;;13.00;99.90;;;;;;7315948;32;20122;-63
2022/10/13 19:40:11;;;;;;;19.08;13.55;;;13.00;99.90;;;;;;7317191;32;20220;-62
2022/10/13 19:44:14;;;;;;;17.75;11.88;;;13.00;99.90;;;;;;7324151;32;20104;-64
2022/10/13 19:48:15;;;;;;;18.17;12.70;;;13.00;99.90;;;;;;7319848;32;20186;-65
2022/10/13 19:52:17;;;;;;;15.65;11.48;;;12.90;99.90;;;;;;7317705;32;20107;-65
2022/10/13 19:56:32;;;;;;;16.25;11.25;;;12.90;99.90;;;;;;7314426;32;20166;-62
2022/10/13 20:00:35;;;;;;;20.10;11.75;;;12.80;99.90;;;;;;7317612;32;20471;-62
2022/10/13 20:04:36;;;;;;;16.42;10.88;;;12.80;99.90;;;;;;7319905;32;20122;-61
2022/10/13 20:08:38;;;;;;;19.85;11.23;;;12.80;99.90;;;;;;7313578;32;20273;-63
2022/10/13 20:12:40;;;;;;;12.95;9.93;;;12.80;99.90;;;;;;7314771;32;20126;-64
2022/10/13 20:16:43;;;;;;;14.77;11.07;;;12.70;99.90;;;;;;7317444;32;20190;-61
2022/10/13 20:20:44;;;;;;;16.80;9.88;;;12.70;99.90;;;;;;7321516;32;20212;-61
2022/10/13 20:24:46;;;;;;;18.20;9.35;;;12.70;99.90;;;;;;7314291;32;20174;-64
2022/10/13 20:28:49;;;;;;;11.70;8.38;;;12.70;99.90;;;;;;7312238;32;20536;-61
2022/10/13 20:32:51;;;;;;;14.80;8.05;;;12.60;99.90;;;;;;7318393;32;20256;-65
2022/10/13 20:36:53;;;;;;;15.80;8.07;;;12.70;99.90;;;;;;7306695;32;20101;-64
2022/10/13 20:41:07;;;;;;;16.77;9.82;;;12.50;99.90;;;;;;7313276;32;20103;-61
2022/10/13 20:45:09;;;;;;;13.73;9.70;;;12.50;99.90;;;;;;7310489;32;20100;-62
2022/10/13 20:49:11;;;;;;;13.85;9.20;;;12.40;99.90;;;;;;7312781;32;20832;-63
2022/10/13 20:53:14;;;;;;;14.93;9.82;;;12.40;99.90;;;;;;7303971;32;20100;-63